Dickinson, ND (58601)

2:50 PM MDT on July 28, 2015 (GMT -0600)
Southview | | Change Station
CLOSE
Current Station
Personal Weather Station
Location: Dickinson, ND
Elevation: 2434 ft
Nearby Weather Stations

Elev 2434 ft 46.86 °N, 102.78 °W | Updated 4 minutes ago

Overcast
Overcast
61.1 °F
Feels Like 61.1 °F
N
18.6
Wind Variable Wind from West

Today
High -- | Low -- °F
--% Chance of Precip.
Yesterday
High -- | Low -- °F
Precip. -- in
5:25 AM 8:28 PM
Waxing Gibbous, 91% visible
Pressure 29.76 in
Visibility 10.0 miles
Clouds Scattered Clouds 3700 ft
Mostly Cloudy 4300 ft
Overcast 5500 ft
Dew Point 46 °F
Humidity 57%
Rainfall 0.00 in
Snow Depth Not available.
UV 3 out of 12
Pollen 5.80 out of 12
Air Quality Not available.
Flu Activity Not available.
METAR KDIK 281956Z AUTO 27037G50KT 10SM SCT037 BKN043 OVC055 18/08 A2978 RMK AO2 PK WND 27050/1951 SLP076 T01780083

More Conditions Fewer Conditions

Pressure 29.76 in
Visibility 10.0 miles
Clouds Scattered Clouds 3700 ft
Mostly Cloudy 4300 ft
Overcast 5500 ft
Dew Point 46 °F
Humidity 57%
Rainfall 0.00 in
Snow Depth Not available.
UV 3 out of 12
Pollen 5.80 out of 12
Air Quality Not available.
Flu Activity Not available.
METAR KDIK 281956Z AUTO 27037G50KT 10SM SCT037 BKN043 OVC055 18/08 A2978 RMK AO2 PK WND 27050/1951 SLP076 T01780083

More Conditions Fewer Conditions

10-Day Weather Forecast

×

Almanac

Astronomy

Jul. 28, 2015 Rise Set
Actual Time
Civil Twilight
Nautical Twilight
Astronomical Twilight
Moon
Length of Visible Light
Length of Day
Tomorrow will be .
, % of the Moon is Illuminated

Today's Extremes

State Highs State Lows

Community

WunderPhotos

Upload Photos

1,841,942 photos uploaded!

WunderBlogs® & News

Nearby

Air Quality

  Air Quality AQ Index Pollutant
Not available.

Snow Depth

Station Depth Elevation

Earthquake Activity

City Distance Mag. Time & Date
Minimum magnitude displayed is 2.5.

Coastal Water Temperatures

Place Temperature

Stations

Nearby Weather Stations

Station Location Temp. Windchill Dew Point Humidity Wind Precip. Elev Updated Type
                   
High Wind Warning
Statement as of 3:13 PM CDT on July 28, 2015

... High Wind Warning now in effect until 11 PM CDT /10 PM MDT/
this evening...

* timing... through Tuesday evening.

* Winds... west winds with gusts to around 60 mph.

* Impacts... travel will be hazardous.

Precautionary/preparedness actions...

A High Wind Warning means a hazardous high wind event is expected
or occurring. Sustained wind speeds of at least 40 mph or gusts
of 58 mph or more can lead to property damage.